createdAt,value
2023-05-17T00:04:30.105Z,77.01
2023-05-17T00:14:36.596Z,77.31
2023-05-17T00:24:42.694Z,78.17
2023-05-17T00:34:49.297Z,78.36
2023-05-17T00:44:55.930Z,78.58
2023-05-17T00:55:03.893Z,78.79
2023-05-17T01:05:09.967Z,80.78
2023-05-17T01:15:16.354Z,81.43
2023-05-17T01:25:22.516Z,81.68
2023-05-17T01:35:29.057Z,81.89
2023-05-17T01:45:35.665Z,82.08
2023-05-17T01:55:41.749Z,82.18
2023-05-17T02:05:48.573Z,82.33
2023-05-17T02:15:55.230Z,82.47
2023-05-17T02:26:01.412Z,82.92
2023-05-17T02:36:07.620Z,82.84
2023-05-17T02:46:13.942Z,82.88
2023-05-17T02:56:20.723Z,83.49
2023-05-17T03:06:26.934Z,84.09
2023-05-17T03:16:32.981Z,83.82
2023-05-17T03:26:39.021Z,83.55
2023-05-17T03:36:45.803Z,83.38
2023-05-17T03:46:51.936Z,83.52
2023-05-17T03:56:58.638Z,83.61
2023-05-17T04:07:04.883Z,83.61
2023-05-17T04:17:10.591Z,83.66
2023-05-17T04:27:16.721Z,83.97
2023-05-17T04:37:22.721Z,84.00
2023-05-17T04:47:29.399Z,83.61
2023-05-17T04:57:36.147Z,81.84
2023-05-17T05:07:42.054Z,75.06
2023-05-17T05:17:44.934Z,88.01
2023-05-17T05:27:51.123Z,81.92
2023-05-17T05:37:57.408Z,79.23
2023-05-17T05:48:02.969Z,78.83
2023-05-17T05:58:08.603Z,75.25
2023-05-17T06:08:14.815Z,77.70
2023-05-17T06:18:20.527Z,84.50
2023-05-17T06:28:29.113Z,85.07
2023-05-17T06:38:35.444Z,82.88
2023-05-17T06:48:42.295Z,81.72
2023-05-17T06:58:48.643Z,81.11
2023-05-17T07:08:54.908Z,80.65
2023-05-17T07:19:01.671Z,80.29
2023-05-17T07:29:07.958Z,79.96
2023-05-17T07:39:14.419Z,79.60
2023-05-17T07:49:20.471Z,79.27
2023-05-17T07:59:26.962Z,79.03
2023-05-17T08:09:32.676Z,78.82
2023-05-17T08:19:38.681Z,78.79
2023-05-17T08:29:44.596Z,78.80
2023-05-17T08:39:50.810Z,78.56
2023-05-17T08:49:56.845Z,78.32
2023-05-17T09:00:04.360Z,78.25
2023-05-17T09:10:11.753Z,78.16
2023-05-17T09:20:19.228Z,77.88
2023-05-17T09:30:27.827Z,78.08
2023-05-17T09:40:36.370Z,78.42
2023-05-17T09:50:43.560Z,78.06
2023-05-17T10:00:52.093Z,77.66
2023-05-17T10:11:00.373Z,77.49
2023-05-17T10:21:07.903Z,77.26
2023-05-17T10:31:15.236Z,76.68
2023-05-17T10:41:22.851Z,76.42
2023-05-17T10:51:30.255Z,76.78
2023-05-17T11:01:37.336Z,77.05
2023-05-17T11:11:44.725Z,76.67
2023-05-17T11:21:53.153Z,76.81
2023-05-17T11:32:00.588Z,77.19
2023-05-17T11:42:07.739Z,77.16
2023-05-17T11:52:15.894Z,76.73
2023-05-17T12:02:23.514Z,76.56
2023-05-17T12:12:30.817Z,76.51
2023-05-17T12:22:37.960Z,76.70
2023-05-17T12:32:45.192Z,76.69
2023-05-17T12:42:52.609Z,76.77
2023-05-17T12:52:59.975Z,76.75
2023-05-17T13:03:07.113Z,76.76
2023-05-17T13:13:14.376Z,76.94
2023-05-17T13:23:21.841Z,76.93
2023-05-17T13:33:30.157Z,76.93
2023-05-17T13:43:37.718Z,77.07
2023-05-17T13:53:45.059Z,77.18
2023-05-17T14:03:52.614Z,77.18
2023-05-17T14:14:00.295Z,77.33
2023-05-17T14:24:07.686Z,77.34
2023-05-17T14:34:15.002Z,77.46
2023-05-17T14:44:22.199Z,77.52
2023-05-17T14:54:29.188Z,77.64
2023-05-17T15:04:36.642Z,77.75
2023-05-17T15:14:45.030Z,77.66
2023-05-17T15:24:52.007Z,77.86
2023-05-17T15:34:59.407Z,78.02
2023-05-17T15:45:06.771Z,78.02
2023-05-17T15:55:14.204Z,78.14
2023-05-17T16:05:21.629Z,78.25
2023-05-17T16:15:28.870Z,78.30
2023-05-17T16:25:36.436Z,78.37
2023-05-17T16:35:43.671Z,78.35
2023-05-17T16:45:51.069Z,78.39
2023-05-17T16:55:58.306Z,78.42
2023-05-17T17:06:05.707Z,78.55
2023-05-17T17:16:13.086Z,78.61
2023-05-17T17:26:20.163Z,78.66
2023-05-17T17:36:27.585Z,78.65
2023-05-17T17:46:35.041Z,78.68
2023-05-17T17:56:42.513Z,78.68
2023-05-17T18:06:49.705Z,78.61
2023-05-17T18:16:57.975Z,78.47
2023-05-17T18:27:05.451Z,78.47
2023-05-17T18:37:13.083Z,78.51
2023-05-17T18:47:20.170Z,78.59
2023-05-17T18:57:27.639Z,78.63
2023-05-17T19:07:34.938Z,78.67
2023-05-17T19:17:42.451Z,78.70
2023-05-17T19:27:49.455Z,72.22
2023-05-17T19:37:55.841Z,72.22
2023-05-17T19:48:03.786Z,72.14
2023-05-17T19:58:09.366Z,71.00
2023-05-17T20:08:15.594Z,71.72
2023-05-17T20:18:21.734Z,72.11
2023-05-17T20:28:27.495Z,72.45
2023-05-17T20:38:32.992Z,72.62
2023-05-17T20:48:39.176Z,72.73
2023-05-17T20:58:45.363Z,72.95
2023-05-17T21:10:10.338Z,72.97
2023-05-17T21:20:15.410Z,74.34
2023-05-17T21:30:20.996Z,74.75
2023-05-17T21:50:32.913Z,75.38
2023-05-17T22:00:38.441Z,75.40
2023-05-17T22:10:44.452Z,75.69
2023-05-17T22:20:50.155Z,76.60
2023-05-17T22:30:55.721Z,76.75
2023-05-17T22:41:01.624Z,76.96
2023-05-17T22:51:07.445Z,77.00
2023-05-17T23:01:14.321Z,77.27
2023-05-17T23:11:20.343Z,77.33
2023-05-17T23:21:26.268Z,77.56
2023-05-17T23:31:32.159Z,78.07
2023-05-17T23:41:38.004Z,78.79
2023-05-17T23:51:43.857Z,78.53
